| time (UTC) | temp F | wind direction | speed knots | gust knots | rain 1hr in | rain 24hr in | rain mn in | humidity % | barometer mb |
| 20260906231526 | 86 | 296 | 13.9 | 20.9 | 0.00 | 0.00 | 0.00 | 23 | 1005.1 |
| 20260906230027 | 86 | 283 | 8.7 | 15.6 | 0.00 | 0.00 | 0.00 | 23 | 1004.9 |
| 20260906224526 | 86 | 319 | 9.6 | 14.8 | 0.00 | 0.00 | 0.00 | 24 | 1005.0 |
| 20260906223025 | 85 | 322 | 7.8 | 14.8 | 0.00 | 0.00 | 0.00 | 25 | 1005.0 |
| 20260906221525 | 86 | 338 | 8.7 | 13.0 | 0.00 | 0.00 | 0.00 | 25 | 1005.0 |
| 20260906220024 | 87 | 333 | 7.8 | 11.3 | 0.00 | 0.00 | 0.00 | 23 | 1004.9 |
| 20260906214528 | 89 | 346 | 7.0 | 10.4 | 0.00 | 0.00 | 0.00 | 21 | 1005.0 |
| 20260906213022 | 90 | 323 | 7.0 | 10.4 | 0.00 | 0.00 | 0.00 | 21 | 1005.2 |
| 20260906211519 | 87 | 307 | 7.0 | 11.3 | 0.00 | 0.00 | 0.00 | 21 | 1005.6 |
| 20260906210023 | 88 | 308 | 7.8 | 11.3 | 0.00 | 0.00 | 0.00 | 20 | 1005.7 |
| 20260906204520 | 88 | 321 | 7.8 | 12.2 | 0.00 | 0.00 | 0.00 | 21 | 1005.8 |
| 20260906203015 | 88 | 307 | 7.8 | 11.3 | 0.00 | 0.00 | 0.00 | 22 | 1005.9 |
| 20260906201526 | 88 | 300 | 7.8 | 12.2 | 0.00 | 0.00 | 0.00 | 22 | 1006.3 |
| 20260906200011 | 88 | 314 | 7.8 | 12.2 | 0.00 | 0.00 | 0.00 | 20 | 1006.4 |
| 20260906194509 | 88 | 322 | 7.0 | 10.4 | 0.00 | 0.00 | 0.00 | 20 | 1006.6 |
| 20260906193006 | 85 | 322 | 3.5 | 7.0 | 0.00 | 0.00 | 0.00 | 21 | 1006.8 |
| 20260906191505 | 84 | 317 | 3.5 | 7.0 | 0.00 | 0.00 | 0.00 | 21 | 1007.0 |
| 20260906190003 | 83 | 317 | 3.5 | 7.0 | 0.00 | 0.00 | 0.00 | 25 | 1007.3 |
| 20260906184503 | 82 | 315 | 4.3 | 8.7 | 0.00 | 0.00 | 0.00 | 25 | 1007.7 |
| 20260906183102 | 83 | 315 | 5.2 | 9.6 | 0.00 | 0.00 | 0.00 | 26 | 1007.8 |
| 20260906181602 | 83 | 306 | 6.1 | 9.6 | 0.00 | 0.00 | 0.00 | 25 | 1008.0 |
| 20260906180059 | 85 | 32 | 1.7 | 7.8 | 0.00 | 0.00 | 0.00 | 22 | 1008.2 |
| 20260906174608 | 86 | 71 | 0.9 | 8.7 | 0.00 | 0.00 | 0.00 | 22 | 1008.4 |
| 20260906173053 | 85 | 57 | 4.3 | 10.4 | 0.00 | 0.00 | 0.00 | 24 | 1008.6 |
| 20260906171549 | 83 | 88 | 5.2 | 8.7 | 0.00 | 0.00 | 0.00 | 24 | 1008.8 |
| 20260906170046 | 81 | 97 | 6.1 | 10.4 | 0.00 | 0.00 | 0.00 | 26 | 1009.0 |
| 20260906164544 | 79 | 92 | 5.2 | 9.6 | 0.00 | 0.00 | 0.00 | 26 | 1009.1 |
| 20260906163049 | 78 | 66 | 7.0 | 11.3 | 0.00 | 0.00 | 0.00 | 27 | 1009.2 |
| 20260906161547 | 79 | 122 | 6.1 | 13.0 | 0.00 | 0.00 | 0.00 | 27 | 1009.3 |
| 20260906160039 | 77 | 114 | 8.7 | 13.0 | 0.00 | 0.00 | 0.00 | 28 | 1009.3 |
| 20260906154542 | 77 | 118 | 9.6 | 13.9 | 0.00 | 0.00 | 0.00 | 28 | 1009.3 |
| 20260906153037 | 77 | 97 | 6.1 | 12.2 | 0.00 | 0.00 | 0.00 | 28 | 1009.4 |
| 20260906151536 | 74 | 78 | 6.1 | 10.4 | 0.00 | 0.00 | 0.00 | 31 | 1009.5 |
| 20260906150033 | 73 | 100 | 4.3 | 11.3 | 0.00 | 0.00 | 0.00 | 33 | 1009.7 |
| 20260906144534 | 71 | 94 | 7.8 | 11.3 | 0.00 | 0.00 | 0.00 | 34 | 1009.7 |
| 20260906143032 | 70 | 104 | 5.2 | 7.8 | 0.00 | 0.00 | 0.00 | 36 | 1009.7 |
| 20260906141530 | 68 | 98 | 6.1 | 9.6 | 0.00 | 0.00 | 0.00 | 39 | 1009.8 |
| 20260906140037 | 66 | 115 | 2.6 | 7.8 | 0.00 | 0.00 | 0.00 | 40 | 1009.8 |
| 20260906134529 | 65 | 107 | 5.2 | 7.8 | 0.00 | 0.00 | 0.00 | 40 | 1009.6 |
| 20260906133041 | 65 | 104 | 5.2 | 8.7 | 0.00 | 0.00 | 0.00 | 40 | 1009.5 |
| 20260906131527 | 66 | 122 | 4.3 | 9.6 | 0.00 | 0.00 | 0.00 | 40 | 1009.4 |
| 20260906130026 | 65 | 115 | 3.5 | 8.7 | 0.00 | 0.00 | 0.00 | 41 | 1009.3 |
| 20260906124525 | 65 | 119 | 3.5 | 7.0 | 0.00 | 0.00 | 0.00 | 41 | 1009.3 |
| 20260906123035 | 64 | 116 | 0.9 | 7.8 | 0.00 | 0.00 | 0.00 | 43 | 1009.1 |
| 20260906121521 | 64 | 116 | 5.2 | 9.6 | 0.00 | 0.00 | 0.00 | 43 | 1009.0 |
| 20260906120019 | 64 | 103 | 6.1 | 7.8 | 0.00 | 0.00 | 0.00 | 44 | 1009.1 |
| 20260906114521 | 65 | 134 | 3.5 | 6.1 | 0.00 | 0.00 | 0.00 | 42 | 1008.9 |
| 20260906113015 | 65 | 120 | 2.6 | 6.1 | 0.00 | 0.00 | 0.00 | 42 | 1008.8 |
| 20260906111513 | 65 | 118 | 5.2 | 7.8 | 0.00 | 0.00 | 0.00 | 41 | 1008.8 |
| 20260906110012 | 65 | 116 | 4.3 | 7.0 | 0.00 | 0.00 | 0.00 | 41 | 1008.6 |
| 20260906104509 | 65 | 127 | 2.6 | 4.3 | 0.00 | 0.00 | 0.00 | 41 | 1008.5 |
| 20260906103007 | 65 | 121 | 2.6 | 7.0 | 0.00 | 0.00 | 0.00 | 41 | 1008.3 |
| 20260906101506 | 65 | 117 | 3.5 | 6.1 | 0.00 | 0.00 | 0.00 | 40 | 1008.2 |
| 20260906100008 | 66 | 138 | 1.7 | 3.5 | 0.00 | 0.00 | 0.00 | 39 | 1008.3 |
| 20260906094505 | 65 | 138 | 0.9 | 2.6 | 0.00 | 0.00 | 0.00 | 41 | 1008.1 |
| 20260906093004 | 66 | 138 | 0.0 | 2.6 | 0.00 | 0.00 | 0.00 | 39 | 1008.1 |
| 20260906091600 | 67 | 138 | 1.7 | 2.6 | 0.00 | 0.00 | 0.00 | 38 | 1008.0 |
| 20260906090112 | 68 | 138 | 2.6 | 6.1 | 0.00 | 0.00 | 0.00 | 37 | 1008.2 |
| 20260906084606 | 69 | 153 | 3.5 | 6.1 | 0.00 | 0.00 | 0.00 | 36 | 1008.2 |
| 20260906083053 | 69 | 168 | 3.5 | 6.1 | 0.00 | 0.00 | 0.00 | 37 | 1008.2 |
| 20260906081555 | 69 | 217 | 0.9 | 3.5 | 0.00 | 0.00 | 0.00 | 36 | 1008.2 |
| 20260906080054 | 70 | 219 | 0.0 | 2.6 | 0.00 | 0.00 | 0.00 | 38 | 1008.2 |
| 20260906074549 | 70 | 219 | 0.0 | 2.6 | 0.00 | 0.00 | 0.00 | 37 | 1008.1 |
| 20260906073056 | 70 | 219 | 0.0 | 0.9 | 0.00 | 0.00 | 0.00 | 34 | 1008.0 |
| 20260906071546 | 71 | 219 | 0.0 | 1.7 | 0.00 | 0.00 | 0.00 | 33 | 1008.0 |
| 20260906070055 | 71 | 219 | 0.0 | 2.6 | 0.00 | 0.00 | 0.00 | 33 | 1008.1 |
| 20260906064544 | 71 | 219 | 1.7 | 3.5 | 0.00 | 0.00 | 0.00 | 35 | 1008.1 |
| 20260906063042 | 72 | 226 | 0.0 | 1.7 | 0.00 | 0.00 | 0.00 | 36 | 1008.1 |
| 20260906061545 | 74 | 226 | 0.0 | 2.6 | 0.00 | 0.00 | 0.00 | 28 | 1007.9 |
| 20260906060036 | 77 | 227 | 2.6 | 5.2 | 0.00 | 0.00 | 0.00 | 22 | 1007.8 |
| 20260906054535 | 77 | 223 | 1.7 | 4.3 | 0.00 | 0.00 | 0.00 | 24 | 1007.7 |
| 20260906053038 | 77 | 223 | 2.6 | 4.3 | 0.00 | 0.00 | 0.00 | 26 | 1007.8 |
| 20260906051533 | 77 | 223 | 1.7 | 5.2 | 0.00 | 0.00 | 0.00 | 25 | 1007.8 |
| 20260906050035 | 76 | 225 | 1.7 | 4.3 | 0.00 | 0.00 | 0.00 | 29 | 1007.7 |
| 20260906044534 | 76 | 227 | 1.7 | 3.5 | 0.00 | 0.00 | 0.00 | 33 | 1007.7 |
| 20260906043041 | 77 | 263 | 0.9 | 3.5 | 0.00 | 0.00 | 0.00 | 33 | 1007.6 |
| 20260906041533 | 77 | 265 | 1.7 | 3.5 | 0.00 | 0.00 | 0.00 | 34 | 1007.4 |
| 20260906040031 | 77 | 265 | 0.0 | 0.0 | 0.00 | 0.00 | 0.00 | 33 | 1007.3 |
| 20260906034530 | 78 | 265 | 0.0 | 0.9 | 0.00 | 0.00 | 0.00 | 31 | 1007.2 |
| 20260906033030 | 79 | 265 | 0.9 | 2.6 | 0.00 | 0.00 | 0.00 | 31 | 1006.9 |
| 20260906031529 | 80 | 265 | 2.6 | 7.8 | 0.00 | 0.00 | 0.00 | 29 | 1006.6 |
| 20260906030029 | 81 | 280 | 1.7 | 5.2 | 0.00 | 0.00 | 0.00 | 28 | 1006.3 |
| 20260906024529 | 82 | 268 | 1.7 | 5.2 | 0.00 | 0.00 | 0.00 | 27 | 1006.2 |
| 20260906023027 | 82 | 271 | 2.6 | 6.1 | 0.00 | 0.00 | 0.00 | 27 | 1006.1 |
| 20260906021528 | 83 | 269 | 3.5 | 7.0 | 0.00 | 0.00 | 0.00 | 28 | 1005.9 |
| 20260906020028 | 83 | 279 | 3.5 | 6.1 | 0.00 | 0.00 | 0.00 | 27 | 1005.6 |
| 20260906014540 | 84 | 294 | 2.6 | 4.3 | 0.00 | 0.00 | 0.00 | 27 | 1005.5 |
| 20260906013029 | 85 | 304 | 3.5 | 4.3 | 0.00 | 0.00 | 0.00 | 26 | 1005.6 |
| 20260906011529 | 86 | 307 | 3.5 | 7.0 | 0.00 | 0.00 | 0.00 | 25 | 1005.5 |
| 20260906010026 | 87 | 318 | 5.2 | 7.8 | 0.00 | 0.00 | 0.00 | 25 | 1005.5 |
| 20260906004525 | 87 | 317 | 5.2 | 8.7 | 0.00 | 0.00 | 0.00 | 25 | 1005.5 |
| 20260906003025 | 88 | 321 | 4.3 | 7.8 | 0.00 | 0.00 | 0.00 | 25 | 1005.6 |
| 20260906001524 | 89 | 318 | 5.2 | 9.6 | 0.00 | 0.00 | 0.00 | 24 | 1005.6 |
| 20260906000024 | 89 | 308 | 7.0 | 10.4 | 0.00 | 0.00 | 0.00 | 24 | 1005.4 |
| 20260905234524 | 89 | 316 | 7.8 | 11.3 | 0.00 | 0.00 | 0.00 | 24 | 1005.5 |
| 20260905233022 | 90 | 313 | 6.1 | 11.3 | 0.00 | 0.00 | 0.00 | 24 | 1005.6 |